SHT4YL EGLL-EGAC
Flight info
| Callsign | SHT4YL |
|---|---|
| Flight time | 0h 57m |
| Altitude | 36000 |
| Route | ULTIB1J ULTIB T420 TNT UL28 RODOL UM65 TENSO L603 BELOX DCT REMSI DCT NINEB M148 MAGEE DCT |
| Aircraft | A20N/M-SDGIJ1LRWXY/SB1 |
Departure
| Time | 2026-04-23 20:04 |
|---|---|
| Airport | London Heathrow Airport (EGLL) |
Arrival
| Time | 2026-04-23 21:01 |
|---|---|
| Airport | George Best Belfast City Airport (EGAC) |
| Time | Latitude | Longitude | Altitude | Speed | Heading |
|---|---|---|---|---|---|
| 2026-04-23 19:29 | 51.47232 | -0.48582 | 92 ft | 0 kts | 270° |
| 2026-04-23 19:55 | 51.47232 | -0.48575 | 92 ft | 2 kts | 270° |
| 2026-04-23 19:55 | 51.47232 | -0.48558 | 92 ft | 0 kts | 270° |
| 2026-04-23 19:56 | 51.47234 | -0.48535 | 92 ft | 2 kts | 253° |
| 2026-04-23 19:56 | 51.47240 | -0.48513 | 92 ft | 2 kts | 238° |
| 2026-04-23 19:56 | 51.47249 | -0.48495 | 91 ft | 2 kts | 221° |
| 2026-04-23 19:56 | 51.47262 | -0.48481 | 91 ft | 2 kts | 204° |
| 2026-04-23 19:57 | 51.47276 | -0.48474 | 91 ft | 2 kts | 188° |
| 2026-04-23 19:57 | 51.47284 | -0.48473 | 92 ft | 1 kts | 179° |
| 2026-04-23 19:57 | 51.47288 | -0.48473 | 91 ft | 0 kts | 179° |
| 2026-04-23 20:00 | 51.47263 | -0.48472 | 91 ft | 6 kts | 178° |
| 2026-04-23 20:00 | 51.47201 | -0.48472 | 91 ft | 11 kts | 180° |
| 2026-04-23 20:01 | 51.47114 | -0.48471 | 91 ft | 13 kts | 180° |
| 2026-04-23 20:01 | 51.47018 | -0.48471 | 91 ft | 14 kts | 180° |
| 2026-04-23 20:01 | 51.46920 | -0.48469 | 91 ft | 13 kts | 180° |
| 2026-04-23 20:01 | 51.46835 | -0.48469 | 91 ft | 9 kts | 180° |
| 2026-04-23 20:02 | 51.46763 | -0.48467 | 91 ft | 10 kts | 180° |
| 2026-04-23 20:02 | 51.46684 | -0.48467 | 91 ft | 11 kts | 180° |
| 2026-04-23 20:02 | 51.46603 | -0.48466 | 91 ft | 8 kts | 178° |
| 2026-04-23 20:02 | 51.46537 | -0.48464 | 91 ft | 10 kts | 179° |
| 2026-04-23 20:03 | 51.46484 | -0.48447 | 91 ft | 6 kts | 126° |
| 2026-04-23 20:03 | 51.46479 | -0.48333 | 91 ft | 25 kts | 90° |
| 2026-04-23 20:03 | 51.46481 | -0.47617 | 92 ft | 100 kts | 90° |
| 2026-04-23 20:03 | 51.46486 | -0.46170 | 105 ft | 157 kts | 89° |
| 2026-04-23 20:04 | 51.46497 | -0.44417 | 741 ft | 157 kts | 89° |
| 2026-04-23 20:04 | 51.46519 | -0.42674 | 1473 ft | 160 kts | 88° |
| 2026-04-23 20:04 | 51.46827 | -0.40890 | 1882 ft | 181 kts | 59° |
| 2026-04-23 20:04 | 51.47722 | -0.39313 | 2396 ft | 198 kts | 51° |
| 2026-04-23 20:05 | 51.48328 | -0.38193 | 2775 ft | 207 kts | 54° |
| 2026-04-23 20:05 | 51.49532 | -0.35827 | 3903 ft | 209 kts | 54° |
| 2026-04-23 20:05 | 51.50441 | -0.34042 | 4744 ft | 212 kts | 53° |
| 2026-04-23 20:05 | 51.51385 | -0.32208 | 5567 ft | 216 kts | 53° |
| 2026-04-23 20:06 | 51.52298 | -0.30321 | 6418 ft | 217 kts | 63° |
| 2026-04-23 20:06 | 51.52875 | -0.28080 | 7051 ft | 229 kts | 73° |
| 2026-04-23 20:06 | 51.53357 | -0.25538 | 7583 ft | 247 kts | 73° |
| 2026-04-23 20:06 | 51.53881 | -0.22815 | 8195 ft | 262 kts | 73° |
| 2026-04-23 20:07 | 51.54530 | -0.20090 | 9023 ft | 268 kts | 59° |
| 2026-04-23 20:07 | 51.55844 | -0.18019 | 9851 ft | 276 kts | 32° |
| 2026-04-23 20:07 | 51.57702 | -0.17144 | 10699 ft | 287 kts | 5° |
| 2026-04-23 20:07 | 51.59693 | -0.17672 | 11261 ft | 307 kts | 341° |
| 2026-04-23 20:08 | 51.61545 | -0.19652 | 11662 ft | 332 kts | 316° |
| 2026-04-23 20:08 | 51.62926 | -0.22749 | 12076 ft | 352 kts | 304° |
| 2026-04-23 20:08 | 51.64439 | -0.25865 | 12682 ft | 358 kts | 320° |
| 2026-04-23 20:08 | 51.66381 | -0.28281 | 13493 ft | 358 kts | 329° |
| 2026-04-23 20:09 | 51.68504 | -0.30413 | 14239 ft | 360 kts | 332° |
| 2026-04-23 20:09 | 51.70650 | -0.32443 | 14977 ft | 364 kts | 332° |
| 2026-04-23 20:09 | 51.72838 | -0.34506 | 15667 ft | 369 kts | 332° |
| 2026-04-23 20:09 | 51.75067 | -0.36629 | 16355 ft | 374 kts | 332° |
| 2026-04-23 20:10 | 51.76561 | -0.38065 | 16817 ft | 377 kts | 331° |
| 2026-04-23 20:10 | 51.79547 | -0.40939 | 17710 ft | 382 kts | 331° |
| 2026-04-23 20:10 | 51.81847 | -0.43144 | 18372 ft | 386 kts | 331° |
| 2026-04-23 20:10 | 51.84152 | -0.45346 | 19001 ft | 390 kts | 331° |
| 2026-04-23 20:11 | 51.86489 | -0.47567 | 19614 ft | 394 kts | 331° |
| 2026-04-23 20:11 | 51.88863 | -0.49798 | 20217 ft | 398 kts | 331° |
| 2026-04-23 20:11 | 51.91269 | -0.52051 | 20817 ft | 403 kts | 331° |
| 2026-04-23 20:11 | 51.93710 | -0.54326 | 21385 ft | 408 kts | 331° |
| 2026-04-23 20:12 | 51.96196 | -0.56629 | 21963 ft | 412 kts | 331° |
| 2026-04-23 20:12 | 51.98664 | -0.58899 | 22517 ft | 416 kts | 331° |
| 2026-04-23 20:12 | 52.01181 | -0.61227 | 23053 ft | 420 kts | 330° |
| 2026-04-23 20:12 | 52.03715 | -0.63710 | 23573 ft | 424 kts | 329° |
| 2026-04-23 20:13 | 52.06216 | -0.66214 | 24073 ft | 428 kts | 327° |
| 2026-04-23 20:13 | 52.08747 | -0.68753 | 24564 ft | 432 kts | 327° |
| 2026-04-23 20:13 | 52.11306 | -0.71317 | 25059 ft | 435 kts | 327° |
| 2026-04-23 20:13 | 52.13877 | -0.73890 | 25522 ft | 438 kts | 327° |
| 2026-04-23 20:14 | 52.16475 | -0.76486 | 25951 ft | 441 kts | 328° |
| 2026-04-23 20:14 | 52.19103 | -0.79114 | 26396 ft | 444 kts | 328° |
| 2026-04-23 20:14 | 52.21741 | -0.81753 | 26837 ft | 447 kts | 328° |
| 2026-04-23 20:14 | 52.24391 | -0.84406 | 27253 ft | 450 kts | 328° |
| 2026-04-23 20:15 | 52.27045 | -0.87067 | 27665 ft | 452 kts | 327° |
| 2026-04-23 20:15 | 52.29718 | -0.89749 | 28033 ft | 456 kts | 327° |
| 2026-04-23 20:15 | 52.32445 | -0.92490 | 28413 ft | 459 kts | 327° |
| 2026-04-23 20:15 | 52.35155 | -0.95219 | 28826 ft | 460 kts | 327° |
| 2026-04-23 20:16 | 52.37853 | -0.97940 | 29383 ft | 458 kts | 327° |
| 2026-04-23 20:16 | 52.40546 | -1.00657 | 29949 ft | 455 kts | 327° |
| 2026-04-23 20:16 | 52.43213 | -1.03356 | 30444 ft | 454 kts | 328° |
| 2026-04-23 20:16 | 52.45910 | -1.06088 | 30902 ft | 453 kts | 328° |
| 2026-04-23 20:17 | 52.48546 | -1.08764 | 31344 ft | 452 kts | 328° |
| 2026-04-23 20:17 | 52.51238 | -1.11500 | 31817 ft | 450 kts | 328° |
| 2026-04-23 20:17 | 52.53881 | -1.14187 | 32273 ft | 448 kts | 328° |
| 2026-04-23 20:17 | 52.56510 | -1.16864 | 32710 ft | 447 kts | 328° |
| 2026-04-23 20:18 | 52.59107 | -1.19517 | 33122 ft | 445 kts | 329° |
| 2026-04-23 20:18 | 52.61750 | -1.22217 | 33552 ft | 443 kts | 329° |
| 2026-04-23 20:18 | 52.64347 | -1.24871 | 33935 ft | 441 kts | 329° |
| 2026-04-23 20:18 | 52.66907 | -1.27497 | 34328 ft | 439 kts | 329° |
| 2026-04-23 20:19 | 52.69493 | -1.30148 | 34685 ft | 437 kts | 329° |
| 2026-04-23 20:19 | 52.71970 | -1.33025 | 34967 ft | 438 kts | 321° |
| 2026-04-23 20:19 | 52.74140 | -1.36493 | 35222 ft | 439 kts | 315° |
| 2026-04-23 20:19 | 52.76214 | -1.40183 | 35464 ft | 439 kts | 314° |
| 2026-04-23 20:20 | 52.78268 | -1.43911 | 35709 ft | 439 kts | 314° |
| 2026-04-23 20:20 | 52.80305 | -1.47593 | 35932 ft | 439 kts | 314° |
| 2026-04-23 20:20 | 52.82384 | -1.51345 | 36161 ft | 439 kts | 314° |
| 2026-04-23 20:20 | 52.84424 | -1.55011 | 36409 ft | 438 kts | 314° |
| 2026-04-23 20:21 | 52.86491 | -1.58718 | 36424 ft | 437 kts | 314° |
| 2026-04-23 20:21 | 52.90581 | -1.66052 | 36429 ft | 435 kts | 314° |
| 2026-04-23 20:22 | 52.94672 | -1.73399 | 36427 ft | 435 kts | 314° |
| 2026-04-23 20:22 | 52.98756 | -1.80756 | 36426 ft | 432 kts | 314° |
| 2026-04-23 20:23 | 53.02781 | -1.88027 | 36424 ft | 431 kts | 314° |
| 2026-04-23 20:23 | 53.06813 | -1.95332 | 36420 ft | 429 kts | 314° |
| 2026-04-23 20:24 | 53.10829 | -2.02632 | 36416 ft | 429 kts | 314° |
| 2026-04-23 20:24 | 53.14845 | -2.09956 | 36422 ft | 429 kts | 314° |
| 2026-04-23 20:25 | 53.18858 | -2.17297 | 36425 ft | 429 kts | 314° |
| 2026-04-23 20:25 | 53.22854 | -2.24620 | 36675 ft | 427 kts | 314° |
| 2026-04-23 20:25 | 53.24832 | -2.28256 | 36525 ft | 424 kts | 314° |
| 2026-04-23 20:26 | 53.26825 | -2.31924 | 36470 ft | 424 kts | 314° |
| 2026-04-23 20:26 | 53.30754 | -2.39175 | 36446 ft | 423 kts | 314° |
| 2026-04-23 20:27 | 53.34683 | -2.46442 | 36433 ft | 423 kts | 314° |
| 2026-04-23 20:27 | 53.38636 | -2.53779 | 36432 ft | 423 kts | 314° |
| 2026-04-23 20:28 | 53.42525 | -2.61019 | 36432 ft | 421 kts | 314° |
| 2026-04-23 20:28 | 53.46430 | -2.68306 | 36429 ft | 421 kts | 314° |
| 2026-04-23 20:29 | 53.50325 | -2.75600 | 36425 ft | 420 kts | 314° |
| 2026-04-23 20:29 | 53.54205 | -2.82890 | 36421 ft | 419 kts | 313° |
| 2026-04-23 20:30 | 53.57641 | -2.90749 | 36418 ft | 420 kts | 307° |
| 2026-04-23 20:30 | 53.62592 | -3.02848 | 36419 ft | 419 kts | 307° |
| 2026-04-23 20:31 | 53.65900 | -3.10892 | 36414 ft | 418 kts | 307° |
| 2026-04-23 20:31 | 53.69185 | -3.18878 | 36407 ft | 418 kts | 307° |
| 2026-04-23 20:32 | 53.72489 | -3.26935 | 36413 ft | 418 kts | 307° |
| 2026-04-23 20:32 | 53.75806 | -3.35041 | 36408 ft | 419 kts | 307° |
| 2026-04-23 20:33 | 53.79098 | -3.43114 | 36407 ft | 419 kts | 307° |
| 2026-04-23 20:33 | 53.82389 | -3.51206 | 36411 ft | 420 kts | 307° |
| 2026-04-23 20:34 | 53.85683 | -3.59334 | 36411 ft | 420 kts | 307° |
| 2026-04-23 20:34 | 53.88970 | -3.67471 | 36412 ft | 419 kts | 306° |
| 2026-04-23 20:35 | 53.92245 | -3.75608 | 36412 ft | 419 kts | 306° |
| 2026-04-23 20:35 | 53.95512 | -3.83745 | 36412 ft | 420 kts | 306° |
| 2026-04-23 20:36 | 53.98767 | -3.91886 | 36413 ft | 420 kts | 306° |
| 2026-04-23 20:36 | 54.02031 | -4.00075 | 36414 ft | 421 kts | 306° |
| 2026-04-23 20:37 | 54.05315 | -4.08337 | 36101 ft | 421 kts | 306° |
| 2026-04-23 20:37 | 54.06935 | -4.12426 | 35751 ft | 418 kts | 306° |
| 2026-04-23 20:37 | 54.08550 | -4.16507 | 35320 ft | 414 kts | 306° |
| 2026-04-23 20:38 | 54.10126 | -4.20501 | 34825 ft | 411 kts | 306° |
| 2026-04-23 20:38 | 54.11723 | -4.24548 | 34263 ft | 411 kts | 306° |
| 2026-04-23 20:38 | 54.13334 | -4.28634 | 33669 ft | 412 kts | 306° |
| 2026-04-23 20:38 | 54.14918 | -4.32659 | 33024 ft | 415 kts | 306° |
| 2026-04-23 20:39 | 54.16533 | -4.36772 | 32336 ft | 417 kts | 306° |
| 2026-04-23 20:39 | 54.18142 | -4.40879 | 31630 ft | 421 kts | 306° |
| 2026-04-23 20:39 | 54.19750 | -4.44987 | 30904 ft | 424 kts | 306° |
| 2026-04-23 20:39 | 54.21373 | -4.49145 | 30141 ft | 428 kts | 305° |
| 2026-04-23 20:40 | 54.23036 | -4.53411 | 29351 ft | 430 kts | 305° |
| 2026-04-23 20:40 | 54.24686 | -4.57615 | 28609 ft | 432 kts | 306° |
| 2026-04-23 20:40 | 54.26400 | -4.61836 | 27913 ft | 432 kts | 306° |
| 2026-04-23 20:40 | 54.28107 | -4.66002 | 27414 ft | 427 kts | 306° |
| 2026-04-23 20:41 | 54.29795 | -4.70131 | 26913 ft | 423 kts | 306° |
| 2026-04-23 20:41 | 54.31462 | -4.74221 | 26414 ft | 419 kts | 305° |
| 2026-04-23 20:41 | 54.33121 | -4.78309 | 25912 ft | 416 kts | 305° |
| 2026-04-23 20:41 | 54.34745 | -4.82320 | 25417 ft | 413 kts | 305° |
| 2026-04-23 20:42 | 54.36369 | -4.86337 | 24924 ft | 410 kts | 305° |
| 2026-04-23 20:42 | 54.37976 | -4.90321 | 24436 ft | 407 kts | 305° |
| 2026-04-23 20:42 | 54.39572 | -4.94284 | 23949 ft | 405 kts | 304° |
| 2026-04-23 20:42 | 54.41172 | -4.98267 | 23462 ft | 402 kts | 304° |
| 2026-04-23 20:43 | 54.42743 | -5.02186 | 22981 ft | 400 kts | 304° |
| 2026-04-23 20:43 | 54.44297 | -5.06064 | 22501 ft | 398 kts | 304° |
| 2026-04-23 20:43 | 54.45866 | -5.09945 | 22012 ft | 396 kts | 305° |
| 2026-04-23 20:43 | 54.47429 | -5.13800 | 21526 ft | 394 kts | 305° |
| 2026-04-23 20:44 | 54.48988 | -5.17634 | 21031 ft | 392 kts | 306° |
| 2026-04-23 20:44 | 54.50706 | -5.21282 | 20538 ft | 390 kts | 313° |
| 2026-04-23 20:44 | 54.52627 | -5.24530 | 20053 ft | 388 kts | 319° |
| 2026-04-23 20:44 | 54.54701 | -5.27461 | 19569 ft | 386 kts | 322° |
| 2026-04-23 20:45 | 54.56791 | -5.30280 | 19095 ft | 383 kts | 322° |
| 2026-04-23 20:45 | 54.58869 | -5.33073 | 18621 ft | 381 kts | 322° |
| 2026-04-23 20:45 | 54.60968 | -5.35907 | 18138 ft | 380 kts | 322° |
| 2026-04-23 20:45 | 54.63026 | -5.38696 | 17665 ft | 377 kts | 322° |
| 2026-04-23 20:46 | 54.65059 | -5.41466 | 17208 ft | 375 kts | 322° |
| 2026-04-23 20:46 | 54.67088 | -5.44237 | 16754 ft | 372 kts | 321° |
| 2026-04-23 20:46 | 54.69112 | -5.47010 | 16302 ft | 370 kts | 321° |
| 2026-04-23 20:46 | 54.71102 | -5.49740 | 15851 ft | 367 kts | 321° |
| 2026-04-23 20:47 | 54.73089 | -5.52470 | 15394 ft | 364 kts | 321° |
| 2026-04-23 20:47 | 54.75011 | -5.55246 | 14936 ft | 361 kts | 313° |
| 2026-04-23 20:47 | 54.76331 | -5.58837 | 14464 ft | 355 kts | 288° |
| 2026-04-23 20:47 | 54.76702 | -5.62983 | 14018 ft | 348 kts | 266° |
| 2026-04-23 20:48 | 54.76162 | -5.66993 | 13556 ft | 342 kts | 244° |
| 2026-04-23 20:48 | 54.74829 | -5.70349 | 13083 ft | 337 kts | 223° |
| 2026-04-23 20:48 | 54.72926 | -5.72612 | 12616 ft | 334 kts | 203° |
| 2026-04-23 20:48 | 54.70685 | -5.73555 | 12142 ft | 332 kts | 182° |
| 2026-04-23 20:49 | 54.68433 | -5.73081 | 11666 ft | 330 kts | 163° |
| 2026-04-23 20:49 | 54.66384 | -5.71235 | 11213 ft | 330 kts | 142° |
| 2026-04-23 20:49 | 54.64882 | -5.68329 | 10934 ft | 325 kts | 123° |
| 2026-04-23 20:49 | 54.63734 | -5.65080 | 10776 ft | 312 kts | 126° |
| 2026-04-23 20:50 | 54.62328 | -5.62364 | 10626 ft | 298 kts | 142° |
| 2026-04-23 20:50 | 54.60583 | -5.60639 | 10478 ft | 279 kts | 162° |
| 2026-04-23 20:50 | 54.58730 | -5.59996 | 10268 ft | 266 kts | 176° |
| 2026-04-23 20:50 | 54.56900 | -5.59845 | 9578 ft | 272 kts | 178° |
| 2026-04-23 20:51 | 54.55000 | -5.59773 | 8940 ft | 274 kts | 179° |
| 2026-04-23 20:51 | 54.53110 | -5.59712 | 8369 ft | 270 kts | 178° |
| 2026-04-23 20:51 | 54.51246 | -5.59649 | 7678 ft | 268 kts | 178° |
| 2026-04-23 20:51 | 54.49404 | -5.59594 | 6986 ft | 266 kts | 178° |
| 2026-04-23 20:52 | 54.47580 | -5.59548 | 6306 ft | 264 kts | 178° |
| 2026-04-23 20:52 | 54.45766 | -5.59471 | 5939 ft | 259 kts | 177° |
| 2026-04-23 20:52 | 54.44004 | -5.59387 | 5716 ft | 249 kts | 177° |
| 2026-04-23 20:52 | 54.42293 | -5.59358 | 5271 ft | 247 kts | 184° |
| 2026-04-23 20:53 | 54.40674 | -5.60288 | 4737 ft | 251 kts | 211° |
| 2026-04-23 20:53 | 54.39459 | -5.62425 | 4254 ft | 255 kts | 237° |
| 2026-04-23 20:53 | 54.38907 | -5.65299 | 3913 ft | 255 kts | 263° |
| 2026-04-23 20:53 | 54.39117 | -5.68298 | 3611 ft | 254 kts | 285° |
| 2026-04-23 20:54 | 54.39656 | -5.71152 | 3312 ft | 252 kts | 287° |
| 2026-04-23 20:54 | 54.40223 | -5.74010 | 3030 ft | 249 kts | 287° |
| 2026-04-23 20:54 | 54.40764 | -5.76774 | 2978 ft | 246 kts | 287° |
| 2026-04-23 20:54 | 54.41301 | -5.79584 | 2973 ft | 251 kts | 286° |
| 2026-04-23 20:55 | 54.41833 | -5.82425 | 2973 ft | 251 kts | 286° |
| 2026-04-23 20:55 | 54.42363 | -5.85266 | 2972 ft | 251 kts | 286° |
| 2026-04-23 20:55 | 54.42894 | -5.88147 | 2842 ft | 251 kts | 286° |
| 2026-04-23 20:55 | 54.43409 | -5.90948 | 2710 ft | 244 kts | 286° |
| 2026-04-23 20:56 | 54.43912 | -5.93680 | 2579 ft | 235 kts | 286° |
| 2026-04-23 20:56 | 54.44397 | -5.96319 | 2447 ft | 228 kts | 286° |
| 2026-04-23 20:56 | 54.44873 | -5.98916 | 2318 ft | 229 kts | 286° |
| 2026-04-23 20:56 | 54.45353 | -6.01522 | 2212 ft | 229 kts | 289° |
| 2026-04-23 20:57 | 54.46172 | -6.03831 | 2093 ft | 229 kts | 320° |
| 2026-04-23 20:57 | 54.47568 | -6.05016 | 1990 ft | 224 kts | 356° |
| 2026-04-23 20:57 | 54.49057 | -6.04675 | 1981 ft | 216 kts | 31° |
| 2026-04-23 20:57 | 54.50170 | -6.03077 | 1987 ft | 206 kts | 54° |
| 2026-04-23 20:58 | 54.51018 | -6.01199 | 1966 ft | 191 kts | 57° |
| 2026-04-23 20:58 | 54.51891 | -5.99493 | 1981 ft | 191 kts | 49° |
| 2026-04-23 20:58 | 54.52862 | -5.98038 | 2005 ft | 179 kts | 44° |
| 2026-04-23 20:58 | 54.53822 | -5.96816 | 1797 ft | 165 kts | 41° |
| 2026-04-23 20:59 | 54.54726 | -5.95745 | 1577 ft | 149 kts | 40° |
| 2026-04-23 20:59 | 54.55534 | -5.94790 | 1367 ft | 135 kts | 40° |
| 2026-04-23 20:59 | 54.56294 | -5.93875 | 1197 ft | 133 kts | 40° |
| 2026-04-23 20:59 | 54.57058 | -5.92952 | 1027 ft | 133 kts | 39° |
| 2026-04-23 21:00 | 54.57812 | -5.92044 | 854 ft | 133 kts | 38° |
| 2026-04-23 21:00 | 54.58566 | -5.91145 | 677 ft | 132 kts | 37° |
| 2026-04-23 21:00 | 54.59322 | -5.90222 | 508 ft | 132 kts | 37° |
| 2026-04-23 21:00 | 54.60074 | -5.89327 | 326 ft | 131 kts | 37° |
| 2026-04-23 21:01 | 54.60819 | -5.88433 | 150 ft | 131 kts | 35° |
| 2026-04-23 21:01 | 54.61564 | -5.87547 | 20 ft | 124 kts | 35° |
| 2026-04-23 21:01 | 54.62024 | -5.86995 | 18 ft | 37 kts | 36° |
| 2026-04-23 21:01 | 54.62199 | -5.86791 | 18 ft | 16 kts | 34° |
| 2026-04-23 21:02 | 54.62237 | -5.86711 | 18 ft | 6 kts | 60° |
| 2026-04-23 21:02 | 54.62239 | -5.86736 | 18 ft | 7 kts | 226° |
| 2026-04-23 21:02 | 54.62178 | -5.86809 | 18 ft | 13 kts | 213° |
| 2026-04-23 21:02 | 54.62088 | -5.86912 | 18 ft | 16 kts | 214° |
| 2026-04-23 21:03 | 54.61991 | -5.87029 | 18 ft | 17 kts | 214° |
| 2026-04-23 21:03 | 54.61900 | -5.87137 | 18 ft | 9 kts | 213° |
| 2026-04-23 21:03 | 54.61842 | -5.87168 | 18 ft | 9 kts | 164° |
| 2026-04-23 21:03 | 54.61794 | -5.87081 | 18 ft | 10 kts | 124° |
| 2026-04-23 21:04 | 54.61753 | -5.86996 | 18 ft | 9 kts | 152° |
| 2026-04-23 21:04 | 54.61691 | -5.87030 | 18 ft | 10 kts | 215° |
| 2026-04-23 21:04 | 54.61627 | -5.87106 | 18 ft | 11 kts | 214° |
| 2026-04-23 21:04 | 54.61557 | -5.87189 | 19 ft | 10 kts | 213° |
| 2026-04-23 21:05 | 54.61521 | -5.87221 | 19 ft | 5 kts | 195° |
| 2026-04-23 21:05 | 54.61482 | -5.87204 | 19 ft | 5 kts | 160° |
| 2026-04-23 21:05 | 54.61462 | -5.87191 | 19 ft | 2 kts | 158° |
| 2026-04-23 21:05 | 54.61459 | -5.87188 | 19 ft | 0 kts | 158° |